Flight Track Log - Related Links

Times and Time Zones

All times are in EDT time to prevent confusion due to time zone crossing. See the UAL933 flight status page for this flight to view local times or setup timezone preferences in your user account.

Time Position Orientation Groundspeed Altitude Reporting Facility
EDT Latitude Longitude Course Direction KTS MPH feet Rate Location/Type
Fri 11:23:15 AM 50.0390 8.5016 281° West  Level FlightAware Approximate
Fri 11:24:15 AM 50.0905 8.3365 281° West  Level FlightAware Approximate
Fri 11:25:15 AM 50.1407 8.1706 280° West  Level FlightAware Approximate
Fri 11:26:15 AM 50.1927 8.0053 280° West  Level FlightAware Approximate
Fri 11:27:15 AM 50.2374 7.8361 279° West  Level FlightAware Approximate
Fri 11:28:15 AM 50.2856 7.6676 279° West  Level FlightAware Approximate
Fri 11:29:15 AM 50.3346 7.4995 278° West  Level FlightAware Approximate
Fri 11:30:15 AM 50.3833 7.3310 277° West  Level FlightAware Approximate
Fri 11:31:15 AM 50.4343 7.1642 277° West  Level FlightAware Approximate
Fri 11:32:15 AM 50.4825 6.9949 276° West  Level FlightAware Approximate
Fri 11:33:15 AM 50.5368 6.8324 275° West  Level FlightAware Approximate
Fri 11:34:15 AM 50.5842 6.6623 274° West  Level FlightAware Approximate
Fri 11:35:15 AM 50.6258 6.4883 273° West  Level FlightAware Approximate
Fri 11:36:15 AM 50.6737 6.3247 273° West  Level FlightAware Approximate
Fri 11:37:15 AM 50.7150 6.1507 272° West  Level FlightAware Approximate
Fri 11:38:15 AM 50.7615 5.9793 271° West  Level FlightAware Approximate
Fri 11:39:15 AM 50.8080 5.8077 270° West  Level FlightAware Approximate
Fri 11:40:15 AM 50.8540 5.6356 268° West  Level FlightAware Approximate
Fri 11:41:15 AM 50.8999 5.4633 267° West  Level FlightAware Approximate
Fri 11:42:15 AM 50.9455 5.2905 266° West  Level FlightAware Approximate
Fri 11:43:15 AM 50.9908 5.1175 264° West  Level FlightAware Approximate
Fri 11:44:15 AM 51.0388 4.9472 263° West  Level FlightAware Approximate
Fri 11:45:15 AM 51.0787 4.7705 261° West  Level FlightAware Approximate
Fri 11:46:15 AM 51.1234 4.5966 259° West  Level FlightAware Approximate
Fri 11:47:15 AM 51.1679 4.4224 257° West  Level FlightAware Approximate
Fri 11:48:15 AM 51.2122 4.2478 255° West  Level FlightAware Approximate
Fri 11:49:15 AM 51.2561 4.0728 253° West  Level FlightAware Approximate
Fri 11:50:15 AM 51.2999 3.8976 250° West  Level FlightAware Approximate
Fri 11:51:15 AM 51.3433 3.7220 247° West  Level FlightAware Approximate
Fri 11:52:15 AM 51.3865 3.5460 243° Southwest  Level FlightAware Approximate
Fri 11:53:15 AM 51.4294 3.3698 240° Southwest  Level FlightAware Approximate
Fri 11:54:15 AM 51.4721 3.1932 235° Southwest  Level FlightAware Approximate
Fri 11:55:15 AM 51.5145 3.0163 231° Southwest  Level FlightAware Approximate
Fri 11:56:15 AM 51.5566 2.8390 226° Southwest  Level FlightAware Approximate
Fri 11:57:15 AM 51.5985 2.6614 220° Southwest  Level FlightAware Approximate
Fri 11:58:15 AM 51.6401 2.4835 215° Southwest  Level FlightAware Approximate
Fri 11:59:15 AM 51.6814 2.3053 209° Southwest  Level FlightAware Approximate
Fri 12:00:15 PM 51.7253 2.1285 202° Southwest  Level FlightAware Approximate
Fri 12:01:15 PM 51.7660 1.9496 196° South  Level FlightAware Approximate
Fri 12:02:15 PM 51.8065 1.7703 190° South  Level FlightAware Approximate
Fri 12:03:15 PM 51.8466 1.5907 184° South  Level FlightAware Approximate
Fri 12:04:15 PM 51.8865 1.4108 178° South  Level FlightAware Approximate
Fri 12:05:15 PM 51.9246 1.2297 173° South  Level FlightAware Approximate
Fri 12:06:15 PM 51.9640 1.0492 168° South  Level FlightAware Approximate
Fri 12:07:15 PM 52.0031 0.8684 163° South  Level FlightAware Approximate
Fri 12:12:18 PM 50.7102 1.4744 300° West 455 524 26,600  Level FlightAware ADS-B
Fri 12:20:02 PM 51.0712 0.4478 315° West 349 402 15,000 -1,445 Descending FlightAware ADS-B
Fri 12:20:32 PM 51.1060 0.3930 315° West 347 399 14,700 -968 Descending FlightAware ADS-B
Fri 12:21:04 PM 51.1415 0.3371 315° West 341 392 14,000 -1,452 Descending FlightAware ADS-B
Fri 12:21:34 PM 51.1753 0.2831 315° West 336 387 13,200 -1,000 Descending FlightAware ADS-B
Fri 12:22:04 PM 51.2086 0.2302 315° West 337 388 13,000 -197 Descending FlightAware ADS-B
Fri 12:22:35 PM 51.2405 0.1794 315° West 310 357 13,000 -590 Level FlightAware ADS-B
Fri 12:23:05 PM 51.2699 0.1326 315° West 287 330 12,400 -1,300 Descending FlightAware ADS-B
Fri 12:23:35 PM 51.2967 0.0897 315° West 262 302 11,700 -1,700 Descending FlightAware ADS-B
Fri 12:24:05 PM 51.3215 0.0499 315° West 244 281 10,700 -1,821 Descending FlightAware ADS-B
Fri 12:24:31 PM 51.3419 0.0168 311° West 243 280 10,000 -1,400 Descending FlightAware ADS-B
Fri 12:24:35 PM 51.3449 0.0112 306° West 243 280 10,000  Level FlightAware ADS-B
Fri 12:24:38 PM 51.3470 0.0065 298° West 241 277 10,000  Level FlightAware ADS-B
Fri 12:24:42 PM 51.3491 0.0002 289° West 237 273 10,000 -600 Level FlightAware ADS-B
Fri 12:24:48 PM 51.3511 -0.0089 281° West 232 267 9,900 -667 Descending FlightAware ADS-B
Fri 12:24:51 PM 51.3518 -0.0147 273° West 229 264 9,900 -857 Level FlightAware ADS-B
Fri 12:24:55 PM 51.3520 -0.0208 266° West 226 260 9,800 -1,200 Descending FlightAware ADS-B
Fri 12:25:01 PM 51.3516 -0.0309 261° West 223 257 9,700 -1,412 Descending FlightAware ADS-B
Fri 12:25:12 PM 51.3500 -0.0479 260° West 217 250 9,400 -1,714 Descending FlightAware ADS-B
Fri 12:25:22 PM 51.3482 -0.0635 260° West 211 243 9,100 -1,448 Descending FlightAware ADS-B
Fri 12:25:41 PM 51.3451 -0.0916 261° West 194 223 8,700 -1,371 Descending FlightAware ADS-B
Fri 12:25:57 PM 51.3428 -0.1136 260° West 190 219 8,300 -1,364 Descending FlightAware ADS-B
Fri 12:26:03 PM 51.3420 -0.1211 263° West 190 219 8,200 -667 Descending FlightAware ADS-B
Fri 12:26:06 PM 51.3417 -0.1253 268° West 190 219 8,200 -1,000 Level FlightAware ADS-B
Fri 12:26:09 PM 51.3416 -0.1304 276° West 190 219 8,100 -857 Descending FlightAware ADS-B
Fri 12:26:13 PM 51.3419 -0.1353 281° West 192 221 8,100 -857 Level FlightAware ADS-B
Fri 12:26:16 PM 51.3424 -0.1393 290° West 194 223 8,000 -857 Descending FlightAware ADS-B
Fri 12:26:20 PM 51.3433 -0.1432 300° West 196 226 8,000  Level FlightAware ADS-B
Fri 12:26:25 PM 51.3457 -0.1498 315° West 200 230 8,000  Level FlightAware ADS-B
Fri 12:26:32 PM 51.3504 -0.1573 330° Northwest 202 232 8,000  Level FlightAware ADS-B
Fri 12:26:36 PM 51.3543 -0.1609 341° North 203 234 8,000 -600 Level FlightAware ADS-B
Fri 12:26:42 PM 51.3593 -0.1636 353° North 205 236 7,900 -1,200 Descending FlightAware ADS-B
Fri 12:26:46 PM 51.3636 -0.1645 North 207 238 7,800 -1,500 Descending FlightAware ADS-B
Fri 12:26:50 PM 51.3674 -0.1642 11° North 210 242 7,700 -1,714 Descending FlightAware ADS-B
Fri 12:26:53 PM 51.3702 -0.1633 21° North 212 244 7,600 -1,500 Descending FlightAware ADS-B
Fri 12:26:58 PM 51.3749 -0.1604 31° Northeast 214 246 7,500 -1,333 Descending FlightAware ADS-B
Fri 12:27:02 PM 51.3783 -0.1571 41° Northeast 216 249 7,400 -1,500 Descending FlightAware ADS-B
Fri 12:27:06 PM 51.3818 -0.1522 53° Northeast 216 249 7,300 -1,200 Descending FlightAware ADS-B
Fri 12:27:12 PM 51.3851 -0.1451 65° Northeast 217 250 7,200 -1,000 Descending FlightAware ADS-B
Fri 12:27:18 PM 51.3872 -0.1379 75° East 217 250 7,100 -1,333 Descending FlightAware ADS-B
Fri 12:27:21 PM 51.3882 -0.1321 81° East 216 249 7,000 -1,500 Descending FlightAware ADS-B
Fri 12:27:30 PM 51.3896 -0.1176 84° East 217 250 6,800 -1,000 Descending FlightAware ADS-B
Fri 12:27:45 PM 51.3913 -0.0931 84° East 218 251 6,600 -800 Descending FlightAware ADS-B
Fri 12:28:00 PM 51.3928 -0.0689 84° East 217 250 6,400 -706 Descending FlightAware ADS-B
Fri 12:28:19 PM 51.3948 -0.0393 81° East 215 247 6,200 -692 Descending FlightAware ADS-B
Fri 12:28:26 PM 51.3958 -0.0290 74° East 215 247 6,100 -1,000 Descending FlightAware ADS-B
Fri 12:28:31 PM 51.3973 -0.0208 55° Northeast 216 249 6,000 -706 Descending FlightAware ADS-B
Fri 12:28:43 PM 51.4040 -0.0056 35° Northeast 211 243 5,900 -706 Descending FlightAware ADS-B
Fri 12:28:48 PM 51.4082 -0.0009 27° Northeast 207 238 5,800 -1,500 Descending FlightAware ADS-B
Fri 12:28:51 PM 51.4108 0.0012 19° North 206 237 5,700 -1,000 Descending FlightAware ADS-B
Fri 12:28:54 PM 51.4135 0.0027 North 204 235 5,700 -1,333 Level FlightAware ADS-B
Fri 12:29:00 PM 51.4185 0.0040 358° North 200 230 5,500 -2,000 Descending FlightAware ADS-B
Fri 12:29:03 PM 51.4217 0.0039 348° North 196 226 5,400 -1,500 Descending FlightAware ADS-B
Fri 12:29:08 PM 51.4259 0.0024 335° Northwest 193 222 5,300 -1,200 Descending FlightAware ADS-B
Fri 12:29:13 PM 51.4302 -0.0008 323° Northwest 190 219 5,200 -1,200 Descending FlightAware ADS-B
Fri 12:29:18 PM 51.4332 -0.0044 313° West 186 214 5,100 -1,333 Descending FlightAware ADS-B
Fri 12:29:22 PM 51.4356 -0.0086 300° West 185 213 5,000 -1,800 Descending FlightAware ADS-B
Fri 12:29:28 PM 51.4382 -0.0157 293° West 184 212 4,800 -1,714 Descending FlightAware ADS-B
Fri 12:29:36 PM 51.4410 -0.0262 290° West 183 211 4,600 -1,000 Descending FlightAware ADS-B
Fri 12:29:52 PM 51.4457 -0.0465 291° West 184 212 4,400 -698 Descending FlightAware ADS-B
Fri 12:30:19 PM 51.4539 -0.0809 291° West 186 214 4,100 -490 Descending FlightAware ADS-B
Fri 12:30:41 PM 51.4606 -0.1087 287° West 187 215 4,000 -769 Descending FlightAware ADS-B
Fri 12:30:58 PM 51.4650 -0.1324 276° West 189 217 3,600 -1,143 Descending FlightAware ADS-B
Fri 12:31:02 PM 51.4653 -0.1373 271° West 186 214 3,600 -600 Level FlightAware ADS-B
Fri 12:31:08 PM 51.4654 -0.1450 270° West 183 211 3,500 -1,043 Descending FlightAware ADS-B
Fri 12:31:25 PM 51.4653 -0.1678 270° West 181 208 3,200 -632 Descending FlightAware ADS-B
Fri 12:31:46 PM 51.4654 -0.1964 270° West 180 207 3,100 -769 Descending FlightAware ADS-B
Fri 12:32:04 PM 51.4654 -0.2199 270° West 181 208 2,700 -1,135 Descending FlightAware ADS-B
Fri 12:32:23 PM 51.4654 -0.2460 296° West 178 205 2,400 -947 Descending FlightAware ADS-B
Fri 12:40:15 PM 51.8662 -1.5964 295° West  Level FlightAware Approximate
Fri 12:41:15 PM 51.9160 -1.7698 295° West  Level FlightAware Approximate
Fri 12:42:15 PM 51.9656 -1.9435 295° West  Level FlightAware Approximate
Fri 12:43:15 PM 52.0149 -2.1177 295° West  Level FlightAware Approximate
Fri 12:44:15 PM 52.0640 -2.2922 294° West  Level FlightAware Approximate
Fri 12:45:15 PM 52.1128 -2.4671 294° West  Level FlightAware Approximate
Fri 12:46:15 PM 52.1613 -2.6424 294° West  Level FlightAware Approximate
Fri 12:47:15 PM 52.2096 -2.8180 291° West  Level FlightAware Approximate
Fri 12:48:15 PM 52.2510 -2.9985 290° West  Level FlightAware Approximate
Fri 12:49:15 PM 52.2920 -3.1794 290° West  Level FlightAware Approximate
Fri 12:50:15 PM 52.3329 -3.3605 290° West  Level FlightAware Approximate
Fri 12:51:15 PM 52.3734 -3.5420 290° West  Level FlightAware Approximate
Fri 12:52:15 PM 52.4137 -3.7238 290° West  Level FlightAware Approximate
Fri 12:53:15 PM 52.4537 -3.9060 290° West  Level FlightAware Approximate
Fri 12:54:15 PM 52.4934 -4.0885 290° West  Level FlightAware Approximate
Fri 12:55:15 PM 52.5328 -4.2713 289° West  Level FlightAware Approximate
Fri 12:56:15 PM 52.5719 -4.4544 289° West  Level FlightAware Approximate
Fri 12:57:15 PM 52.6108 -4.6379 289° West  Level FlightAware Approximate
Fri 12:58:15 PM 52.6493 -4.8217 289° West  Level FlightAware Approximate
Fri 12:59:15 PM 52.6876 -5.0058 289° West  Level FlightAware Approximate
Fri 01:00:15 PM 52.7256 -5.1902 289° West  Level FlightAware Approximate
Fri 01:01:15 PM 52.7634 -5.3750 289° West  Level FlightAware Approximate
Fri 01:02:15 PM 52.8008 -5.5601 288° West  Level FlightAware Approximate
Fri 01:03:15 PM 52.8379 -5.7455 288° West  Level FlightAware Approximate
Fri 01:04:15 PM 52.8748 -5.9312 288° West  Level FlightAware Approximate
Fri 01:05:15 PM 52.9113 -6.1172 288° West  Level FlightAware Approximate
Fri 01:06:15 PM 52.9476 -6.3035 288° West  Level FlightAware Approximate
Fri 01:07:15 PM 52.9836 -6.4902 288° West  Level FlightAware Approximate
Fri 01:08:15 PM 53.0193 -6.6771 288° West  Level FlightAware Approximate
Fri 01:09:15 PM 53.0546 -6.8644 287° West  Level FlightAware Approximate
Fri 01:10:15 PM 53.0897 -7.0520 287° West  Level FlightAware Approximate
Fri 01:11:15 PM 53.1245 -7.2399 287° West  Level FlightAware Approximate
Fri 01:12:15 PM 53.1590 -7.4280 287° West  Level FlightAware Approximate
Fri 01:13:15 PM 53.1932 -7.6165 287° West  Level FlightAware Approximate
Fri 01:14:15 PM 53.2271 -7.8053 287° West  Level FlightAware Approximate
Fri 01:15:15 PM 53.2608 -7.9944 286° West  Level FlightAware Approximate
Fri 01:16:15 PM 53.2941 -8.1838 286° West  Level FlightAware Approximate
Fri 01:17:15 PM 53.3271 -8.3734 286° West  Level FlightAware Approximate
Fri 01:18:15 PM 53.3593 -8.5636 283° West  Level FlightAware Approximate
Fri 01:19:15 PM 53.3852 -8.7566 283° West  Level FlightAware Approximate
Fri 01:20:15 PM 53.4108 -8.9499 282° West  Level FlightAware Approximate
Fri 01:21:15 PM 53.4360 -9.1434 282° West  Level FlightAware Approximate
Fri 01:22:15 PM 53.4609 -9.3371 282° West  Level FlightAware Approximate
Fri 01:23:15 PM 53.4855 -9.5310 282° West  Level FlightAware Approximate
Fri 01:24:15 PM 53.5098 -9.7252 282° West  Level FlightAware Approximate
Fri 01:25:15 PM 53.5338 -9.9196 282° West  Level FlightAware Approximate
Fri 01:26:15 PM 53.5575 -10.1142 281° West  Level FlightAware Approximate
Fri 01:27:15 PM 53.5808 -10.3090 281° West  Level FlightAware Approximate
Fri 01:28:15 PM 53.6039 -10.5041 281° West  Level FlightAware Approximate
Fri 01:29:15 PM 53.6266 -10.6993 281° West  Level FlightAware Approximate
Fri 01:30:15 PM 53.6490 -10.8948 281° West  Level FlightAware Approximate
Fri 01:31:15 PM 53.6711 -11.0905 281° West  Level FlightAware Approximate
Fri 01:32:15 PM 53.6928 -11.2863 281° West  Level FlightAware Approximate
Fri 01:33:15 PM 53.7143 -11.4824 280° West  Level FlightAware Approximate
Fri 01:34:15 PM 53.7354 -11.6787 280° West  Level FlightAware Approximate
Fri 01:35:15 PM 53.7562 -11.8751 280° West  Level FlightAware Approximate
Fri 01:36:15 PM 53.7767 -12.0718 280° West  Level FlightAware Approximate
Fri 01:37:15 PM 53.7968 -12.2687 280° West  Level FlightAware Approximate
Fri 01:38:15 PM 53.8167 -12.4657 280° West  Level FlightAware Approximate
Fri 01:39:15 PM 53.8362 -12.6629 279° West  Level FlightAware Approximate
Fri 01:40:15 PM 53.8554 -12.8603 279° West  Level FlightAware Approximate
Fri 01:41:15 PM 53.8742 -13.0579 279° West  Level FlightAware Approximate
Fri 01:42:15 PM 53.8928 -13.2557 279° West  Level FlightAware Approximate
Fri 01:43:15 PM 53.9110 -13.4536 279° West  Level FlightAware Approximate
Fri 01:44:15 PM 53.9289 -13.6517 279° West  Level FlightAware Approximate
Fri 01:45:15 PM 53.9464 -13.8500 278° West  Level FlightAware Approximate
Fri 01:46:15 PM 53.9625 -14.0487 278° West  Level FlightAware Approximate
Fri 01:47:15 PM 53.9782 -14.2476 278° West  Level FlightAware Approximate
Fri 01:48:15 PM 53.9936 -14.4466 277° West  Level FlightAware Approximate
Fri 01:49:15 PM 54.0087 -14.6458 277° West  Level FlightAware Approximate
Fri 01:50:15 PM 54.0235 -14.8451 277° West  Level FlightAware Approximate
Fri 01:51:15 PM 54.0379 -15.0445 277° West  Level FlightAware Approximate
Fri 01:52:15 PM 54.0520 -15.2441 277° West  Level FlightAware Approximate
Fri 01:53:15 PM 54.0658 -15.4439 277° West  Level FlightAware Approximate
Fri 01:54:15 PM 54.0792 -15.6437 276° West  Level FlightAware Approximate
Fri 01:55:15 PM 54.0923 -15.8437 276° West  Level FlightAware Approximate
Fri 01:56:15 PM 54.1051 -16.0438 276° West  Level FlightAware Approximate
Fri 01:57:15 PM 54.1175 -16.2440 276° West  Level FlightAware Approximate
Fri 01:58:15 PM 54.1296 -16.4444 276° West  Level FlightAware Approximate
Fri 01:59:15 PM 54.1414 -16.6448 276° West  Level FlightAware Approximate
Fri 02:00:15 PM 54.1529 -16.8454 275° West  Level FlightAware Approximate
Fri 02:01:15 PM 54.1640 -17.0461 275° West  Level FlightAware Approximate
Fri 02:02:15 PM 54.1747 -17.2469 275° West  Level FlightAware Approximate
Fri 02:03:15 PM 54.1852 -17.4478 275° West  Level FlightAware Approximate
Fri 02:04:15 PM 54.1953 -17.6488 275° West  Level FlightAware Approximate
Fri 02:05:15 PM 54.2050 -17.8498 275° West  Level FlightAware Approximate
Fri 02:06:15 PM 54.2145 -18.0510 275° West  Level FlightAware Approximate
Fri 02:07:15 PM 54.2236 -18.2523 274° West  Level FlightAware Approximate
Fri 02:08:15 PM 54.2323 -18.4537 274° West  Level FlightAware Approximate
Fri 02:09:15 PM 54.2408 -18.6551 274° West  Level FlightAware Approximate
Fri 02:10:15 PM 54.2489 -18.8566 274° West  Level FlightAware Approximate
Fri 02:11:15 PM 54.2566 -19.0582 274° West  Level FlightAware Approximate
Fri 02:12:15 PM 54.2640 -19.2599 274° West  Level FlightAware Approximate
Fri 02:13:15 PM 54.2711 -19.4617 273° West  Level FlightAware Approximate
Fri 02:14:15 PM 54.2779 -19.6635 273° West  Level FlightAware Approximate
Fri 02:15:15 PM 54.2843 -19.8654 273° West  Level FlightAware Approximate
Fri 02:16:15 PM 54.2903 -20.0673 273° West  Level FlightAware Approximate
Fri 02:17:15 PM 54.2961 -20.2693 273° West  Level FlightAware Approximate
Fri 02:18:15 PM 54.3015 -20.4713 273° West  Level FlightAware Approximate
Fri 02:19:15 PM 54.3065 -20.6734 272° West  Level FlightAware Approximate
Fri 02:20:15 PM 54.3112 -20.8756 272° West  Level FlightAware Approximate
Fri 02:21:15 PM 54.3156 -21.0778 272° West  Level FlightAware Approximate
Fri 02:22:15 PM 54.3197 -21.2800 272° West  Level FlightAware Approximate
Fri 02:23:15 PM 54.3234 -21.4823 272° West  Level FlightAware Approximate
Fri 02:24:15 PM 54.3268 -21.6846 272° West  Level FlightAware Approximate
Fri 02:25:15 PM 54.3298 -21.8870 271° West  Level FlightAware Approximate
Fri 02:26:15 PM 54.3325 -22.0893 271° West  Level FlightAware Approximate
Fri 02:27:15 PM 54.3348 -22.2917 271° West  Level FlightAware Approximate
Fri 02:28:15 PM 54.3368 -22.4942 271° West  Level FlightAware Approximate
Fri 02:29:15 PM 54.3385 -22.6966 271° West  Level FlightAware Approximate
Fri 02:30:15 PM 54.3398 -22.8990 271° West  Level FlightAware Approximate
Fri 02:31:15 PM 54.3408 -23.1015 270° West  Level FlightAware Approximate
Fri 02:32:15 PM 54.3415 -23.3040 270° West  Level FlightAware Approximate
Fri 02:33:15 PM 54.3418 -23.5064 270° West  Level FlightAware Approximate
Fri 02:34:15 PM 54.3418 -23.7089 270° West  Level FlightAware Approximate
Fri 02:35:15 PM 54.3414 -23.9114 270° West  Level FlightAware Approximate
Fri 02:36:15 PM 54.3407 -24.1139 270° West  Level FlightAware Approximate
Fri 02:37:15 PM 54.3397 -24.3163 269° West  Level FlightAware Approximate
Fri 02:38:15 PM 54.3383 -24.5188 269° West  Level FlightAware Approximate
Fri 02:39:15 PM 54.3366 -24.7212 269° West  Level FlightAware Approximate
Fri 02:40:15 PM 54.3346 -24.9236 269° West  Level FlightAware Approximate
Fri 02:41:15 PM 54.3322 -25.1260 269° West  Level FlightAware Approximate
Fri 02:42:15 PM 54.3294 -25.3284 269° West  Level FlightAware Approximate
Fri 02:43:15 PM 54.3264 -25.5307 268° West  Level FlightAware Approximate
Fri 02:44:15 PM 54.3230 -25.7330 268° West  Level FlightAware Approximate
Fri 02:45:15 PM 54.3192 -25.9353 268° West  Level FlightAware Approximate
Fri 02:46:15 PM 54.3151 -26.1375 268° West  Level FlightAware Approximate
Fri 02:47:15 PM 54.3107 -26.3397 268° West  Level FlightAware Approximate
Fri 02:48:15 PM 54.3060 -26.5419 268° West  Level FlightAware Approximate
Fri 02:49:15 PM 54.3008 -26.7440 267° West  Level FlightAware Approximate
Fri 02:50:15 PM 54.2954 -26.9460 267° West  Level FlightAware Approximate
Fri 02:51:15 PM 54.2896 -27.1480 267° West  Level FlightAware Approximate
Fri 02:52:15 PM 54.2835 -27.3499 267° West  Level FlightAware Approximate
Fri 02:53:15 PM 54.2771 -27.5518 267° West  Level FlightAware Approximate
Fri 02:54:15 PM 54.2703 -27.7536 267° West  Level FlightAware Approximate
Fri 02:55:15 PM 54.2632 -27.9554 266° West  Level FlightAware Approximate
Fri 02:56:15 PM 54.2557 -28.1570 266° West  Level FlightAware Approximate
Fri 02:57:15 PM 54.2479 -28.3586 266° West  Level FlightAware Approximate
Fri 02:58:15 PM 54.2398 -28.5601 266° West  Level FlightAware Approximate
Fri 02:59:15 PM 54.2313 -28.7616 266° West  Level FlightAware Approximate
Fri 03:00:15 PM 54.2225 -28.9629 266° West  Level FlightAware Approximate
Fri 03:01:15 PM 54.2134 -29.1642 265° West  Level FlightAware Approximate
Fri 03:02:15 PM 54.2039 -29.3653 265° West  Level FlightAware Approximate
Fri 03:03:15 PM 54.1941 -29.5664 265° West  Level FlightAware Approximate
Fri 03:04:15 PM 54.1840 -29.7674 265° West  Level FlightAware Approximate
Fri 03:05:15 PM 54.1735 -29.9683 265° West  Level FlightAware Approximate
Fri 03:06:15 PM 54.1624 -30.1690 265° West  Level FlightAware Approximate
Fri 03:07:15 PM 54.1509 -30.3696 264° West  Level FlightAware Approximate
Fri 03:08:15 PM 54.1391 -30.5701 264° West  Level FlightAware Approximate
Fri 03:09:15 PM 54.1270 -30.7705 264° West  Level FlightAware Approximate
Fri 03:10:15 PM 54.1145 -30.9708 264° West  Level FlightAware Approximate
Fri 03:11:15 PM 54.1017 -31.1709 264° West  Level FlightAware Approximate
Fri 03:12:15 PM 54.0886 -31.3710 264° West  Level FlightAware Approximate
Fri 03:13:15 PM 54.0752 -31.5709 263° West  Level FlightAware Approximate
Fri 03:14:15 PM 54.0614 -31.7706 263° West  Level FlightAware Approximate
Fri 03:15:15 PM 54.0473 -31.9703 263° West  Level FlightAware Approximate
Fri 03:16:15 PM 54.0328 -32.1698 263° West  Level FlightAware Approximate
Fri 03:17:15 PM 54.0181 -32.3691 263° West  Level FlightAware Approximate
Fri 03:18:15 PM 54.0030 -32.5683 263° West  Level FlightAware Approximate
Fri 03:19:15 PM 53.9875 -32.7674 262° West  Level FlightAware Approximate
Fri 03:20:15 PM 53.9718 -32.9663 262° West  Level FlightAware Approximate
Fri 03:21:15 PM 53.9557 -33.1650 262° West  Level FlightAware Approximate
Fri 03:22:15 PM 53.9393 -33.3637 262° West  Level FlightAware Approximate
Fri 03:23:15 PM 53.9225 -33.5621 262° West  Level FlightAware Approximate
Fri 03:24:15 PM 53.9055 -33.7604 262° West  Level FlightAware Approximate
Fri 03:25:15 PM 53.8881 -33.9585 261° West  Level FlightAware Approximate
Fri 03:26:15 PM 53.8704 -34.1565 261° West  Level FlightAware Approximate
Fri 03:27:15 PM 53.8523 -34.3543 261° West  Level FlightAware Approximate
Fri 03:28:15 PM 53.8339 -34.5519 261° West  Level FlightAware Approximate
Fri 03:29:15 PM 53.8152 -34.7493 261° West  Level FlightAware Approximate
Fri 03:30:15 PM 53.7962 -34.9466 261° West  Level FlightAware Approximate
Fri 03:31:15 PM 53.7769 -35.1437 260° West  Level FlightAware Approximate
Fri 03:32:15 PM 53.7572 -35.3406 260° West  Level FlightAware Approximate
Fri 03:33:15 PM 53.7372 -35.5373 260° West  Level FlightAware Approximate
Fri 03:34:15 PM 53.7169 -35.7338 260° West  Level FlightAware Approximate
Fri 03:35:15 PM 53.6963 -35.9302 260° West  Level FlightAware Approximate
Fri 03:36:15 PM 53.6753 -36.1263 260° West  Level FlightAware Approximate
Fri 03:37:15 PM 53.6540 -36.3223 260° West  Level FlightAware Approximate
Fri 03:38:15 PM 53.6325 -36.5180 259° West  Level FlightAware Approximate
Fri 03:39:15 PM 53.6105 -36.7136 259° West  Level FlightAware Approximate
Fri 03:40:15 PM 53.5883 -36.9089 259° West  Level FlightAware Approximate
Fri 03:41:15 PM 53.5658 -37.1040 259° West  Level FlightAware Approximate
Fri 03:42:15 PM 53.5429 -37.2989 259° West  Level FlightAware Approximate
Fri 03:43:15 PM 53.5197 -37.4936 259° West  Level FlightAware Approximate
Fri 03:44:15 PM 53.4962 -37.6881 258° West  Level FlightAware Approximate
Fri 03:45:15 PM 53.4724 -37.8824 258° West  Level FlightAware Approximate
Fri 03:46:15 PM 53.4483 -38.0765 258° West  Level FlightAware Approximate
Fri 03:47:15 PM 53.4238 -38.2703 258° West  Level FlightAware Approximate
Fri 03:48:15 PM 53.3991 -38.4639 258° West  Level FlightAware Approximate
Fri 03:49:15 PM 53.3740 -38.6573 258° West  Level FlightAware Approximate
Fri 03:50:15 PM 53.3486 -38.8505 258° West  Level FlightAware Approximate
Fri 03:51:15 PM 53.3229 -39.0434 257° West  Level FlightAware Approximate
Fri 03:52:15 PM 53.2969 -39.2361 257° West  Level FlightAware Approximate
Fri 03:53:15 PM 53.2706 -39.4286 257° West  Level FlightAware Approximate
Fri 03:54:15 PM 53.2440 -39.6208 257° West  Level FlightAware Approximate
Fri 03:55:15 PM 53.2171 -39.8128 257° West  Level FlightAware Approximate
Fri 03:56:15 PM 53.1898 -40.0045 257° West  Level FlightAware Approximate
Fri 03:57:15 PM 53.1623 -40.1960 256° West  Level FlightAware Approximate
Fri 03:58:15 PM 53.1344 -40.3872 256° West  Level FlightAware Approximate
Fri 03:59:15 PM 53.1063 -40.5783 256° West  Level FlightAware Approximate
Fri 04:00:15 PM 53.0778 -40.7690 256° West  Level FlightAware Approximate
Fri 04:01:15 PM 53.0490 -40.9595 256° West  Level FlightAware Approximate
Fri 04:02:15 PM 53.0200 -41.1497 256° West  Level FlightAware Approximate
Fri 04:03:15 PM 52.9906 -41.3397 256° West  Level FlightAware Approximate
Fri 04:04:15 PM 52.9609 -41.5294 255° West  Level FlightAware Approximate
Fri 04:05:15 PM 52.9309 -41.7189 255° West  Level FlightAware Approximate
Fri 04:06:15 PM 52.9007 -41.9081 255° West  Level FlightAware Approximate
Fri 04:07:15 PM 52.8701 -42.0970 255° West  Level FlightAware Approximate
Fri 04:08:15 PM 52.8392 -42.2857 255° West  Level FlightAware Approximate
Fri 04:09:15 PM 52.8080 -42.4741 255° West  Level FlightAware Approximate
Fri 04:10:15 PM 52.7765 -42.6622 254° West  Level FlightAware Approximate
Fri 04:11:15 PM 52.7448 -42.8500 254° West  Level FlightAware Approximate
Fri 04:12:15 PM 52.7127 -43.0376 254° West  Level FlightAware Approximate
Fri 04:13:15 PM 52.6803 -43.2249 254° West  Level FlightAware Approximate
Fri 04:14:15 PM 52.6477 -43.4119 254° West  Level FlightAware Approximate
Fri 04:15:15 PM 52.6147 -43.5987 254° West  Level FlightAware Approximate
Fri 04:16:15 PM 52.5815 -43.7851 254° West  Level FlightAware Approximate
Fri 04:17:15 PM 52.5479 -43.9713 253° West  Level FlightAware Approximate
Fri 04:18:15 PM 52.5141 -44.1572 253° West  Level FlightAware Approximate
Fri 04:19:15 PM 52.4800 -44.3428 253° West  Level FlightAware Approximate
Fri 04:20:15 PM 52.4455 -44.5281 253° West  Level FlightAware Approximate
Fri 04:21:15 PM 52.4109 -44.7131 253° West  Level FlightAware Approximate
Fri 04:22:15 PM 52.3759 -44.8978 253° West  Level FlightAware Approximate
Fri 04:23:15 PM 52.3406 -45.0823 253° West  Level FlightAware Approximate
Fri 04:24:15 PM 52.3050 -45.2664 252° West  Level FlightAware Approximate
Fri 04:25:15 PM 52.2692 -45.4502 252° West  Level FlightAware Approximate
Fri 04:26:15 PM 52.2330 -45.6338 252° West  Level FlightAware Approximate
Fri 04:27:15 PM 52.1966 -45.8170 252° West  Level FlightAware Approximate
Fri 04:28:15 PM 52.1599 -46.0000 252° West  Level FlightAware Approximate
Fri 04:29:15 PM 52.1229 -46.1826 265° West  Level FlightAware Approximate
Fri 04:30:15 PM 52.1125 -46.3676 251° West  Level FlightAware Approximate
Fri 04:31:15 PM 52.0743 -46.5494 251° West  Level FlightAware Approximate
Fri 04:32:15 PM 52.0358 -46.7309 251° West  Level FlightAware Approximate
Fri 04:33:15 PM 51.9971 -46.9120 251° West  Level FlightAware Approximate
Fri 04:34:15 PM 51.9581 -47.0929 251° West  Level FlightAware Approximate
Fri 04:35:15 PM 51.9188 -47.2734 250° West  Level FlightAware Approximate
Fri 04:36:15 PM 51.8792 -47.4536 250° West  Level FlightAware Approximate
Fri 04:37:15 PM 51.8393 -47.6335 250° West  Level FlightAware Approximate
Fri 04:38:15 PM 51.7992 -47.8131 250° West  Level FlightAware Approximate
Fri 04:39:15 PM 51.7588 -47.9923 250° West  Level FlightAware Approximate
Fri 04:40:15 PM 51.7181 -48.1712 250° West  Level FlightAware Approximate
Fri 04:41:15 PM 51.6772 -48.3499 250° West  Level FlightAware Approximate
Fri 04:42:15 PM 51.6360 -48.5281 249° West  Level FlightAware Approximate
Fri 04:43:15 PM 51.5945 -48.7061 249° West  Level FlightAware Approximate
Fri 04:44:15 PM 51.5527 -48.8837 249° West  Level FlightAware Approximate
Fri 04:45:15 PM 51.5107 -49.0611 249° West  Level FlightAware Approximate
Fri 04:46:15 PM 51.4684 -49.2380 249° West  Level FlightAware Approximate
Fri 04:47:15 PM 51.4259 -49.4147 249° West  Level FlightAware Approximate
Fri 04:48:15 PM 51.3831 -49.5910 249° West  Level FlightAware Approximate
Fri 04:49:15 PM 51.3400 -49.7670 249° West  Level FlightAware Approximate
Fri 04:50:15 PM 51.2966 -49.9426 248° West  Level FlightAware Approximate
Fri 04:51:15 PM 51.2530 -50.1180 248° West  Level FlightAware Approximate
Fri 04:52:15 PM 51.2092 -50.2930 252° West  Level FlightAware Approximate
Fri 04:53:15 PM 51.1728 -50.4712 248° West  Level FlightAware Approximate
Fri 04:54:15 PM 51.1282 -50.6455 248° West  Level FlightAware Approximate
Fri 04:55:15 PM 51.0834 -50.8194 248° West  Level FlightAware Approximate
Fri 04:56:15 PM 51.0383 -50.9929 247° West  Level FlightAware Approximate
Fri 04:57:15 PM 50.9930 -51.1662 247° West  Level FlightAware Approximate
Fri 04:58:15 PM 50.9474 -51.3391 247° West  Level FlightAware Approximate
Fri 04:59:15 PM 50.9016 -51.5116 247° West  Level FlightAware Approximate
Fri 05:00:15 PM 50.8555 -51.6838 247° West  Level FlightAware Approximate
Fri 05:01:15 PM 50.8091 -51.8557 247° West  Level FlightAware Approximate
Fri 05:02:15 PM 50.7625 -52.0272 247° West  Level FlightAware Approximate
Fri 05:03:15 PM 50.7157 -52.1984 242° Southwest  Level FlightAware Approximate
Fri 05:04:15 PM 50.6609 -52.3594 246° West  Level FlightAware Approximate
Fri 05:05:15 PM 50.6136 -52.5300 246° West  Level FlightAware Approximate
Fri 05:06:15 PM 50.5661 -52.7002 246° West  Level FlightAware Approximate
Fri 05:07:15 PM 50.5183 -52.8700 246° West  Level FlightAware Approximate
Fri 05:08:15 PM 50.4703 -53.0395 246° West  Level FlightAware Approximate
Fri 05:09:15 PM 50.4221 -53.2087 246° West  Level FlightAware Approximate
Fri 05:10:15 PM 50.3736 -53.3775 246° West  Level FlightAware Approximate
Fri 05:11:15 PM 50.3249 -53.5460 246° West  Level FlightAware Approximate
Fri 05:12:15 PM 50.2759 -53.7141 245° Southwest  Level FlightAware Approximate
Fri 05:13:15 PM 50.2267 -53.8819 245° Southwest  Level FlightAware Approximate
Fri 05:14:15 PM 50.1772 -54.0493 245° Southwest  Level FlightAware Approximate
Fri 05:15:15 PM 50.1275 -54.2164 245° Southwest  Level FlightAware Approximate
Fri 05:16:15 PM 50.0776 -54.3831 245° Southwest  Level FlightAware Approximate
Fri 05:17:15 PM 50.0274 -54.5495 245° Southwest  Level FlightAware Approximate
Fri 05:18:15 PM 49.9770 -54.7155 245° Southwest  Level FlightAware Approximate
Fri 05:19:15 PM 49.9263 -54.8812 245° Southwest  Level FlightAware Approximate
Fri 05:20:15 PM 49.8754 -55.0466 244° Southwest  Level FlightAware Approximate
Fri 05:21:15 PM 49.8243 -55.2116 244° Southwest  Level FlightAware Approximate
Fri 05:22:15 PM 49.7730 -55.3762 244° Southwest  Level FlightAware Approximate
Fri 05:23:15 PM 49.7214 -55.5405 244° Southwest  Level FlightAware Approximate
Fri 05:24:15 PM 49.6696 -55.7045 244° Southwest  Level FlightAware Approximate
Fri 05:25:15 PM 49.6175 -55.8681 244° Southwest  Level FlightAware Approximate
Fri 05:26:15 PM 49.5652 -56.0313 244° Southwest  Level FlightAware Approximate
Fri 05:27:15 PM 49.5127 -56.1942 244° Southwest  Level FlightAware Approximate
Fri 05:28:15 PM 49.4600 -56.3568 243° Southwest  Level FlightAware Approximate
Fri 05:29:15 PM 49.4070 -56.5190 243° Southwest  Level FlightAware Approximate
Fri 05:30:15 PM 49.3538 -56.6808 243° Southwest  Level FlightAware Approximate
Fri 05:31:15 PM 49.3004 -56.8423 243° Southwest  Level FlightAware Approximate
Fri 05:32:15 PM 49.2468 -57.0035 243° Southwest  Level FlightAware Approximate
Fri 05:33:15 PM 49.1929 -57.1642 243° Southwest  Level FlightAware Approximate
Fri 05:34:15 PM 49.1388 -57.3247 243° Southwest  Level FlightAware Approximate
Fri 05:35:15 PM 49.0845 -57.4848 243° Southwest  Level FlightAware Approximate
Fri 05:36:15 PM 49.0300 -57.6445 242° Southwest  Level FlightAware Approximate
Fri 05:37:15 PM 48.9752 -57.8039 245° Southwest  Level FlightAware Approximate
Fri 05:38:15 PM 48.9262 -57.9666 242° Southwest  Level FlightAware Approximate
Fri 05:39:15 PM 48.8710 -58.1253 242° Southwest  Level FlightAware Approximate
Fri 05:40:15 PM 48.8157 -58.2837 242° Southwest  Level FlightAware Approximate
Fri 05:41:15 PM 48.7601 -58.4418 242° Southwest  Level FlightAware Approximate
Fri 05:42:15 PM 48.7043 -58.5995 242° Southwest  Level FlightAware Approximate
Fri 05:43:15 PM 48.6483 -58.7568 242° Southwest  Level FlightAware Approximate
Fri 05:44:15 PM 48.5921 -58.9138 241° Southwest  Level FlightAware Approximate
Fri 05:45:15 PM 48.5356 -59.0705 241° Southwest  Level FlightAware Approximate
Fri 05:46:15 PM 48.4790 -59.2268 241° Southwest  Level FlightAware Approximate
Fri 05:47:15 PM 48.4221 -59.3827 241° Southwest  Level FlightAware Approximate
Fri 05:48:15 PM 48.3651 -59.5383 241° Southwest  Level FlightAware Approximate
Fri 05:49:15 PM 48.3078 -59.6936 241° Southwest  Level FlightAware Approximate
Fri 05:50:15 PM 48.2503 -59.8485 241° Southwest  Level FlightAware Approximate
Fri 05:51:15 PM 48.1926 -60.0030 241° Southwest  Level FlightAware Approximate
Fri 05:52:15 PM 48.1347 -60.1572 241° Southwest  Level FlightAware Approximate
Fri 05:53:15 PM 48.0766 -60.3111 240° Southwest  Level FlightAware Approximate
Fri 05:54:15 PM 48.0183 -60.4646 240° Southwest  Level FlightAware Approximate
Fri 05:55:15 PM 47.9598 -60.6178 240° Southwest  Level FlightAware Approximate
Fri 05:56:15 PM 47.9011 -60.7706 240° Southwest  Level FlightAware Approximate
Fri 05:57:15 PM 47.8421 -60.9230 240° Southwest  Level FlightAware Approximate
Fri 05:58:15 PM 47.7830 -61.0752 240° Southwest  Level FlightAware Approximate
Fri 05:59:15 PM 47.7237 -61.2269 240° Southwest  Level FlightAware Approximate
Fri 06:00:15 PM 47.6642 -61.3784 240° Southwest  Level FlightAware Approximate
Fri 06:01:15 PM 47.6045 -61.5294 240° Southwest  Level FlightAware Approximate
Fri 06:02:15 PM 47.5445 -61.6802 239° Southwest  Level FlightAware Approximate
Fri 06:03:15 PM 47.4844 -61.8306 239° Southwest  Level FlightAware Approximate
Fri 06:04:15 PM 47.4241 -61.9806 239° Southwest  Level FlightAware Approximate
Fri 06:05:15 PM 47.3636 -62.1303 239° Southwest  Level FlightAware Approximate
Fri 06:06:15 PM 47.3029 -62.2797 239° Southwest  Level FlightAware Approximate
Fri 06:07:15 PM 47.2420 -62.4287 239° Southwest  Level FlightAware Approximate
Fri 06:08:15 PM 47.1809 -62.5774 239° Southwest  Level FlightAware Approximate
Fri 06:09:15 PM 47.1196 -62.7257 239° Southwest  Level FlightAware Approximate
Fri 06:10:15 PM 47.0582 -62.8737 235° Southwest  Level FlightAware Approximate
Fri 06:11:15 PM 46.9899 -63.0145 239° Southwest  Level FlightAware Approximate
Fri 06:12:15 PM 46.9282 -63.1620 238° Southwest  Level FlightAware Approximate
Fri 06:13:15 PM 46.8663 -63.3091 238° Southwest  Level FlightAware Approximate
Fri 06:14:15 PM 46.8043 -63.4558 238° Southwest  Level FlightAware Approximate
Fri 06:15:15 PM 46.7420 -63.6023 238° Southwest  Level FlightAware Approximate
Fri 06:16:15 PM 46.6796 -63.7484 238° Southwest  Level FlightAware Approximate
Fri 06:17:15 PM 46.6170 -63.8941 238° Southwest  Level FlightAware Approximate
Fri 06:18:15 PM 46.5542 -64.0396 238° Southwest  Level FlightAware Approximate
Fri 06:19:15 PM 46.4912 -64.1846 238° Southwest  Level FlightAware Approximate
Fri 06:20:15 PM 46.4281 -64.3294 238° Southwest  Level FlightAware Approximate
Fri 06:21:15 PM 46.3647 -64.4738 237° Southwest  Level FlightAware Approximate
Fri 06:22:15 PM 46.3012 -64.6179 237° Southwest  Level FlightAware Approximate
Fri 06:23:15 PM 46.2375 -64.7616 237° Southwest  Level FlightAware Approximate
Fri 06:24:15 PM 46.1736 -64.9050 238° Southwest  Level FlightAware Approximate
Fri 06:25:15 PM 46.1113 -65.0497 237° Southwest  Level FlightAware Approximate
Fri 06:26:15 PM 46.0470 -65.1924 237° Southwest  Level FlightAware Approximate
Fri 06:27:15 PM 45.9826 -65.3348 237° Southwest  Level FlightAware Approximate
Fri 06:28:15 PM 45.9179 -65.4769 237° Southwest  Level FlightAware Approximate
Fri 06:29:15 PM 45.8531 -65.6186 237° Southwest  Level FlightAware Approximate
Fri 06:30:15 PM 45.7881 -65.7599 237° Southwest  Level FlightAware Approximate
Fri 06:31:15 PM 45.7230 -65.9010 239° Southwest  Level FlightAware Approximate
Fri 06:32:15 PM 45.6620 -66.0455 236° Southwest  Level FlightAware Approximate
Fri 06:33:15 PM 45.5963 -66.1858 236° Southwest  Level FlightAware Approximate
Fri 06:34:15 PM 45.5305 -66.3258 236° Southwest  Level FlightAware Approximate
Fri 06:35:15 PM 45.4646 -66.4655 236° Southwest  Level FlightAware Approximate
Fri 06:36:15 PM 45.3985 -66.6048 236° Southwest  Level FlightAware Approximate
Fri 06:37:15 PM 45.3322 -66.7438 236° Southwest  Level FlightAware Approximate
Fri 06:38:15 PM 45.2657 -66.8824 236° Southwest  Level FlightAware Approximate
Fri 06:39:15 PM 45.1991 -67.0208 236° Southwest  Level FlightAware Approximate
Fri 06:40:15 PM 45.1323 -67.1588 234° Southwest  Level FlightAware Approximate
Fri 06:41:15 PM 45.0623 -67.2932 235° Southwest  Level FlightAware Approximate
Fri 06:42:15 PM 44.9938 -67.4292 234° Southwest  Level FlightAware Approximate
Fri 06:43:15 PM 44.9251 -67.5649 234° Southwest  Level FlightAware Approximate
Fri 06:44:15 PM 44.8563 -67.7002 234° Southwest  Level FlightAware Approximate
Fri 06:45:15 PM 44.7873 -67.8352 234° Southwest  Level FlightAware Approximate
Fri 06:46:15 PM 44.7181 -67.9699 234° Southwest  Level FlightAware Approximate
Fri 06:47:15 PM 44.6488 -68.1043 234° Southwest  Level FlightAware Approximate
Fri 06:48:15 PM 44.5793 -68.2383 234° Southwest  Level FlightAware Approximate
Fri 06:49:15 PM 44.5097 -68.3720 234° Southwest  Level FlightAware Approximate
Fri 06:50:15 PM 44.4399 -68.5054 234° Southwest  Level FlightAware Approximate
Fri 06:51:15 PM 44.3700 -68.6385 234° Southwest  Level FlightAware Approximate
Fri 06:52:15 PM 44.2999 -68.7713 234° Southwest  Level FlightAware Approximate
Fri 06:53:15 PM 44.2296 -68.9038 233° Southwest  Level FlightAware Approximate
Fri 06:54:15 PM 44.1592 -69.0359 233° Southwest  Level FlightAware Approximate
Fri 06:55:15 PM 44.0887 -69.1677 233° Southwest  Level FlightAware Approximate
Fri 06:56:15 PM 44.0180 -69.2992 233° Southwest  Level FlightAware Approximate
Fri 06:57:15 PM 43.9471 -69.4304 233° Southwest  Level FlightAware Approximate
Fri 06:58:15 PM 43.8761 -69.5613 233° Southwest  Level FlightAware Approximate
Fri 06:59:15 PM 43.8050 -69.6919 233° Southwest  Level FlightAware Approximate
Fri 07:00:15 PM 43.7337 -69.8221 233° Southwest  Level FlightAware Approximate
Fri 07:01:15 PM 43.6622 -69.9521 233° Southwest  Level FlightAware Approximate
Fri 07:02:15 PM 43.5906 -70.0817 233° Southwest  Level FlightAware Approximate
Fri 07:03:15 PM 43.5189 -70.2110 233° Southwest  Level FlightAware Approximate
Fri 07:04:15 PM 43.4470 -70.3400 232° Southwest  Level FlightAware Approximate
Fri 07:05:15 PM 43.3750 -70.4688 232° Southwest  Level FlightAware Approximate
Fri 07:06:15 PM 43.3028 -70.5972 232° Southwest  Level FlightAware Approximate
Fri 07:07:15 PM 43.2305 -70.7253 232° Southwest  Level FlightAware Approximate
Fri 07:08:15 PM 43.1580 -70.8531 232° Southwest  Level FlightAware Approximate
Fri 07:09:15 PM 43.0854 -70.9806 232° Southwest  Level FlightAware Approximate
Fri 07:10:15 PM 43.0127 -71.1078 260° West  Level FlightAware Approximate
Fri 07:11:15 PM 42.9920 -71.2645 234° Southwest  Level FlightAware Approximate
Fri 07:12:15 PM 42.9224 -71.3947 234° Southwest  Level FlightAware Approximate
Fri 07:13:15 PM 42.8527 -71.5247 234° Southwest  Level FlightAware Approximate
Fri 07:14:15 PM 42.7828 -71.6544 234° Southwest  Level FlightAware Approximate
Fri 07:15:15 PM 42.7128 -71.7838 227° Southwest  Level FlightAware Approximate
Fri 07:16:15 PM 42.6327 -71.9008 235° Southwest  Level FlightAware Approximate
Fri 07:17:15 PM 42.5648 -72.0319 235° Southwest  Level FlightAware Approximate
Fri 07:18:15 PM 42.4967 -72.1628 235° Southwest  Level FlightAware Approximate
Fri 07:19:15 PM 42.4285 -72.2934 218° Southwest  Level FlightAware Approximate
Fri 07:20:15 PM 42.3369 -72.3917 235° Southwest  Level FlightAware Approximate
Fri 07:21:15 PM 42.2694 -72.5226 235° Southwest  Level FlightAware Approximate
Fri 07:22:15 PM 42.2018 -72.6532 231° Southwest  Level FlightAware Approximate
Fri 07:23:15 PM 42.1268 -72.7762 234° Southwest  Level FlightAware Approximate
Fri 07:24:15 PM 42.0572 -72.9047 227° Southwest  Level FlightAware Approximate
Fri 07:25:15 PM 41.9771 -73.0212 235° Southwest  Level FlightAware Approximate
Fri 07:26:15 PM 41.9096 -73.1513 235° Southwest  Level FlightAware Approximate
Fri 07:27:15 PM 41.8419 -73.2812 235° Southwest  Level FlightAware Approximate
Fri 07:28:15 PM 41.7741 -73.4108 235° Southwest  Level FlightAware Approximate
Fri 07:29:15 PM 41.7061 -73.5401 235° Southwest  Level FlightAware Approximate
Fri 07:30:15 PM 41.6380 -73.6692 235° Southwest  Level FlightAware Approximate
Fri 07:31:15 PM 41.5697 -73.7979 194° South  Level FlightAware Approximate
Fri 07:32:15 PM 41.4591 -73.8342 236° Southwest  Level FlightAware Approximate
Fri 07:33:15 PM 41.3938 -73.9653 186° South  Level FlightAware Approximate
Fri 07:34:15 PM 41.2785 -73.9817 237° Southwest  Level FlightAware Approximate
Fri 07:35:15 PM 41.2146 -74.1137 228° Southwest  Level FlightAware Approximate
Fri 07:36:15 PM 41.1356 -74.2301 228° Southwest  Level FlightAware Approximate
Fri 07:37:15 PM 41.0564 -74.3463 228° Southwest  Level FlightAware Approximate
Fri 07:38:15 PM 40.9771 -74.4622 228° Southwest  Level FlightAware Approximate
Fri 07:39:15 PM 40.8977 -74.5778 249° West  Level FlightAware Approximate
Fri 07:40:15 PM 40.8564 -74.7216 227° Southwest  Level FlightAware Approximate
Fri 07:41:15 PM 40.7765 -74.8363 227° Southwest  Level FlightAware Approximate
Fri 07:42:15 PM 40.6964 -74.9508 227° Southwest  Level FlightAware Approximate
Fri 07:43:15 PM 40.6162 -75.0650 227° Southwest  Level FlightAware Approximate
Fri 07:44:15 PM 40.5359 -75.1789 227° Southwest  Level FlightAware Approximate
Fri 07:45:15 PM 40.4556 -75.2925 227° Southwest  Level FlightAware Approximate
Fri 07:46:15 PM 40.3750 -75.4059 227° Southwest  Level FlightAware Approximate
Fri 07:47:15 PM 40.2944 -75.5190 227° Southwest  Level FlightAware Approximate
Fri 07:48:15 PM 40.2137 -75.6319 227° Southwest  Level FlightAware Approximate
Fri 07:49:15 PM 40.1329 -75.7444 227° Southwest  Level FlightAware Approximate
Fri 07:50:15 PM 40.0519 -75.8567 227° Southwest  Level FlightAware Approximate
Fri 07:51:15 PM 39.9709 -75.9688 227° Southwest  Level FlightAware Approximate
Fri 07:52:15 PM 39.8897 -76.0805 227° Southwest  Level FlightAware Approximate
Fri 07:53:15 PM 39.8085 -76.1920 226° Southwest  Level FlightAware Approximate
Fri 07:54:15 PM 39.7271 -76.3033 226° Southwest  Level FlightAware Approximate
Fri 07:55:15 PM 39.6456 -76.4142 226° Southwest  Level FlightAware Approximate
Fri 07:56:15 PM 39.5640 -76.5249 226° Southwest  Level FlightAware Approximate
Fri 07:57:15 PM 39.4823 -76.6354 226° Southwest  Level FlightAware Approximate
Fri 07:58:15 PM 39.4006 -76.7456 226° Southwest  Level FlightAware Approximate
Fri 07:59:15 PM 39.3187 -76.8555 226° Southwest  Level FlightAware Approximate
Fri 08:00:15 PM 39.2367 -76.9652 226° Southwest  Level FlightAware Approximate
Fri 08:01:15 PM 39.1546 -77.0746 226° Southwest  Level FlightAware Approximate
Fri 08:02:15 PM 39.0724 -77.1838 226° Southwest  Level FlightAware Approximate
Fri 08:03:15 PM 38.9901 -77.2927 203° Southwest  Level FlightAware Approximate
Fri 08:04:15 PM 38.8824 -77.3500 203° Southwest  Level FlightAware Approximate

Login

Don't have an account? Register now (free) for customized features, flight alerts, and more!